Time;durP1;ratioP1;P1;durP2;ratioP2;P2;SDS_P1;SDS_P2;PMS_P1;PMS_P2;Temp;Humidity;BMP_temperature;BMP_pressure;BME280_temperature;BME280_humidity;BME280_pressure;Samples;Min_cycle;Max_cycle;Signal;HPM_P1;HPM_P2
2023/04/19 00:00:56;;;;;;;;;;;21.90;52.80;;;;;;1564339;74;1942;-63
2023/04/19 00:02:59;;;;;;;;;;;21.90;52.80;;;;;;1553008;74;1099;-63
2023/04/19 00:05:01;;;;;;;;;;;21.80;52.60;;;;;;1562654;74;1158;-64
2023/04/19 00:07:03;;;;;;;;;;;21.90;52.80;;;;;;1548384;74;685;-63
2023/04/19 00:09:06;;;;;;;;;;;21.90;53.20;;;;;;1562446;74;707;-64
2023/04/19 00:11:08;;;;;;;;;;;21.90;53.10;;;;;;1560234;74;1608;-65
2023/04/19 00:13:10;;;;;;;;;;;21.90;53.10;;;;;;1548754;74;701;-64
2023/04/19 00:15:12;;;;;;;;;;;21.90;52.90;;;;;;1578836;74;1152;-64
2023/04/19 00:17:14;;;;;;;;;;;21.90;53.10;;;;;;1565380;74;734;-63
2023/04/19 00:19:16;;;;;;;;;;;21.90;53.00;;;;;;1559931;74;723;-63
2023/04/19 00:21:18;;;;;;;;;;;21.90;52.90;;;;;;1563902;74;1919;-63
2023/04/19 00:23:20;;;;;;;;;;;21.90;53.10;;;;;;1566505;74;666;-65
2023/04/19 00:25:22;;;;;;;;;;;21.80;53.00;;;;;;1570698;74;1463;-65
2023/04/19 00:27:24;;;;;;;;;;;21.90;53.00;;;;;;1573375;74;698;-65
2023/04/19 00:29:26;;;;;;;;;;;21.90;53.00;;;;;;1564194;74;759;-64
2023/04/19 00:31:28;;;;;;;;;;;21.90;53.00;;;;;;1583279;74;747;-64
2023/04/19 00:33:30;;;;;;;;;;;21.90;52.90;;;;;;1563308;74;716;-64
2023/04/19 00:35:32;;;;;;;;;;;21.90;52.80;;;;;;1569363;74;1145;-64
2023/04/19 00:37:34;;;;;;;;;;;21.90;52.90;;;;;;1571113;74;677;-64
2023/04/19 00:39:36;;;;;;;;;;;21.90;52.80;;;;;;1579078;74;1404;-65
2023/04/19 00:41:38;;;;;;;;;;;21.90;52.90;;;;;;1570665;74;1924;-64
2023/04/19 00:43:40;;;;;;;;;;;21.90;52.90;;;;;;1579005;74;771;-63
2023/04/19 00:45:42;;;;;;;;;;;21.90;53.10;;;;;;1560160;74;1142;-63
2023/04/19 00:47:44;;;;;;;;;;;21.90;53.00;;;;;;1550746;74;759;-62
2023/04/19 00:49:46;;;;;;;;;;;21.90;53.00;;;;;;1560188;74;709;-62
2023/04/19 00:51:48;;;;;;;;;;;21.80;52.90;;;;;;1553078;74;753;-63
2023/04/19 00:53:50;;;;;;;;;;;21.90;53.10;;;;;;1583713;74;1549;-62
2023/04/19 00:55:52;;;;;;;;;;;21.80;53.00;;;;;;1553300;74;1075;-63
2023/04/19 00:57:53;;;;;;;;;;;21.80;53.00;;;;;;1555984;74;723;-65
2023/04/19 00:59:55;;;;;;;;;;;21.90;53.10;;;;;;1568500;74;1942;-64
2023/04/19 01:01:57;;;;;;;;;;;21.90;53.00;;;;;;1564843;74;703;-63
2023/04/19 01:04:00;;;;;;;;;;;21.90;53.10;;;;;;1576551;74;1133;-64
2023/04/19 01:06:02;;;;;;;;;;;21.80;53.10;;;;;;1565576;74;748;-62
2023/04/19 01:08:04;;;;;;;;;;;21.80;53.00;;;;;;1568986;74;1542;-64
2023/04/19 01:10:06;;;;;;;;;;;21.80;52.90;;;;;;1565558;74;708;-63
2023/04/19 01:12:08;;;;;;;;;;;21.80;52.90;;;;;;1562983;74;737;-63
2023/04/19 01:14:10;;;;;;;;;;;21.80;52.90;;;;;;1577924;74;1149;-65
2023/04/19 01:16:12;;;;;;;;;;;21.80;53.20;;;;;;1568465;74;682;-65
2023/04/19 01:18:14;;;;;;;;;;;21.80;53.20;;;;;;1574335;74;798;-64
2023/04/19 01:20:16;;;;;;;;;;;21.80;53.40;;;;;;1565449;74;1926;-64
2023/04/19 01:22:25;;;;;;;;;;;21.90;53.40;;;;;;1567839;74;1369;-64
2023/04/19 01:24:24;;;;;;;;;;;21.80;53.30;;;;;;1562305;74;1189;-64
2023/04/19 01:26:26;;;;;;;;;;;21.80;53.50;;;;;;1566138;74;830;-62
2023/04/19 01:28:28;;;;;;;;;;;21.80;53.40;;;;;;1567713;74;659;-65
2023/04/19 01:30:31;;;;;;;;;;;21.80;53.50;;;;;;1572930;74;787;-63
2023/04/19 01:32:33;;;;;;;;;;;21.80;53.40;;;;;;1576260;74;707;-62
2023/04/19 01:34:35;;;;;;;;;;;21.80;53.40;;;;;;1564151;74;1134;-65
2023/04/19 01:36:36;;;;;;;;;;;21.80;53.60;;;;;;1552876;74;1540;-64
2023/04/19 01:38:38;;;;;;;;;;;21.80;53.60;;;;;;1573640;74;692;-65
2023/04/19 01:40:40;;;;;;;;;;;21.80;53.60;;;;;;1560500;74;1933;-65
2023/04/19 01:42:42;;;;;;;;;;;21.80;53.60;;;;;;1560436;74;719;-65
2023/04/19 01:44:44;;;;;;;;;;;21.80;53.60;;;;;;1586144;74;1140;-64
2023/04/19 01:46:46;;;;;;;;;;;21.80;53.70;;;;;;1569324;74;781;-64
2023/04/19 01:48:48;;;;;;;;;;;21.70;54.10;;;;;;1560744;74;786;-63
2023/04/19 01:50:50;;;;;;;;;;;21.70;54.20;;;;;;1567387;74;1571;-64
2023/04/19 01:52:52;;;;;;;;;;;21.70;54.20;;;;;;1569434;74;735;-64
2023/04/19 01:54:54;;;;;;;;;;;21.60;54.30;;;;;;1568449;74;1151;-63
2023/04/19 01:56:56;;;;;;;;;;;21.60;54.20;;;;;;1568124;74;747;-64
2023/04/19 01:58:57;;;;;;;;;;;21.70;54.20;;;;;;1554067;74;953;-64
2023/04/19 02:00:59;;;;;;;;;;;21.70;54.20;;;;;;1568119;74;1940;-64
2023/04/19 02:03:01;;;;;;;;;;;21.70;54.00;;;;;;1571327;74;1068;-63
2023/04/19 02:05:04;;;;;;;;;;;21.70;53.90;;;;;;1552263;75;1474;-65
2023/04/19 02:07:06;;;;;;;;;;;21.70;53.80;;;;;;1560921;74;874;-65
2023/04/19 02:09:08;;;;;;;;;;;21.80;53.80;;;;;;1558896;74;777;-64
2023/04/19 02:11:11;;;;;;;;;;;21.80;53.70;;;;;;1559200;75;765;-63
2023/04/19 02:13:12;;;;;;;;;;;21.70;53.60;;;;;;1560342;75;815;-64
2023/04/19 02:15:14;;;;;;;;;;;21.80;53.50;;;;;;1566618;74;1172;-63
2023/04/19 02:17:16;;;;;;;;;;;21.80;53.60;;;;;;1555732;75;1503;-64
2023/04/19 02:19:18;;;;;;;;;;;21.80;53.40;;;;;;1555044;75;731;-62
2023/04/19 02:21:20;;;;;;;;;;;21.80;53.40;;;;;;1564330;74;1930;-64
2023/04/19 02:23:22;;;;;;;;;;;21.80;53.60;;;;;;1566732;74;962;-65
2023/04/19 02:25:24;;;;;;;;;;;21.80;53.60;;;;;;1564945;75;1105;-64
2023/04/19 02:27:26;;;;;;;;;;;21.80;54.00;;;;;;1563585;75;757;-64
2023/04/19 02:29:27;;;;;;;;;;;21.80;53.80;;;;;;1561678;75;764;-64
2023/04/19 02:31:29;;;;;;;;;;;21.80;53.60;;;;;;1559188;74;1556;-66
2023/04/19 02:33:31;;;;;;;;;;;21.90;53.80;;;;;;1548219;74;799;-64
2023/04/19 02:35:33;;;;;;;;;;;21.80;53.60;;;;;;1565770;74;1125;-63
2023/04/19 02:37:35;;;;;;;;;;;21.90;53.60;;;;;;1556239;74;797;-63
2023/04/19 02:39:37;;;;;;;;;;;21.90;53.40;;;;;;1558134;74;661;-64
2023/04/19 02:41:39;;;;;;;;;;;21.90;53.50;;;;;;1563855;74;1915;-64
2023/04/19 02:43:41;;;;;;;;;;;21.90;53.40;;;;;;1539803;74;711;-63
2023/04/19 02:45:43;;;;;;;;;;;22.00;53.40;;;;;;1550396;74;1562;-63
2023/04/19 02:47:45;;;;;;;;;;;22.00;53.30;;;;;;1559662;74;764;-63
2023/04/19 02:49:47;;;;;;;;;;;21.90;53.20;;;;;;1551539;74;792;-63
2023/04/19 02:51:50;;;;;;;;;;;21.90;53.20;;;;;;1564718;74;697;-64
2023/04/19 02:53:52;;;;;;;;;;;22.00;53.10;;;;;;1559746;74;886;-65
2023/04/19 02:55:55;;;;;;;;;;;22.00;53.10;;;;;;1566441;75;1146;-63
2023/04/19 02:57:56;;;;;;;;;;;21.90;53.20;;;;;;1555563;75;685;-64
2023/04/19 02:59:58;;;;;;;;;;;21.90;53.10;;;;;;1556485;75;1579;-64
2023/04/19 03:02:00;;;;;;;;;;;22.00;53.10;;;;;;1561024;75;1935;-64
2023/04/19 03:04:02;;;;;;;;;;;21.90;53.00;;;;;;1548708;74;1194;-63
2023/04/19 03:06:04;;;;;;;;;;;22.00;53.00;;;;;;1564624;74;701;-65
2023/04/19 03:08:06;;;;;;;;;;;22.00;53.00;;;;;;1568270;74;721;-66
2023/04/19 03:10:08;;;;;;;;;;;21.90;53.00;;;;;;1552296;74;756;-65
2023/04/19 03:12:10;;;;;;;;;;;21.90;53.20;;;;;;1569400;74;696;-64
2023/04/19 03:14:12;;;;;;;;;;;21.90;53.10;;;;;;1553684;75;1566;-61
2023/04/19 03:16:15;;;;;;;;;;;21.90;53.30;;;;;;1561346;74;698;-64
2023/04/19 03:18:16;;;;;;;;;;;21.90;53.30;;;;;;1558146;74;696;-64
2023/04/19 03:20:19;;;;;;;;;;;21.80;53.40;;;;;;1542576;74;728;-64
2023/04/19 03:22:21;;;;;;;;;;;21.80;53.60;;;;;;1560446;74;1924;-70
2023/04/19 03:24:27;;;;;;;;;;;21.70;53.90;;;;;;1560122;74;1189;-65
2023/04/19 03:26:30;;;;;;;;;;;21.70;54.30;;;;;;1554610;75;638;-65
2023/04/19 03:28:32;;;;;;;;;;;21.70;54.30;;;;;;1567368;74;1547;-65
2023/04/19 03:30:34;;;;;;;;;;;21.60;54.20;;;;;;1566350;74;780;-63
2023/04/19 03:32:36;;;;;;;;;;;21.60;54.40;;;;;;1548920;75;792;-68
2023/04/19 03:34:37;;;;;;;;;;;21.70;54.30;;;;;;1561912;75;1160;-67
2023/04/19 03:36:39;;;;;;;;;;;21.70;54.40;;;;;;1562305;74;732;-63
2023/04/19 03:38:43;;;;;;;;;;;21.80;54.00;;;;;;1546587;75;700;-64
2023/04/19 03:40:45;;;;;;;;;;;21.80;54.10;;;;;;1553821;75;675;-63
2023/04/19 03:42:47;;;;;;;;;;;21.90;53.90;;;;;;1556251;74;1551;-64
2023/04/19 03:44:49;;;;;;;;;;;21.90;53.80;;;;;;1568991;74;1082;-65
2023/04/19 03:46:51;;;;;;;;;;;21.90;53.70;;;;;;1563573;74;702;-63
2023/04/19 03:48:53;;;;;;;;;;;21.90;53.50;;;;;;1559076;75;631;-62
2023/04/19 03:50:55;;;;;;;;;;;22.00;53.50;;;;;;1547643;75;771;-66
2023/04/19 03:52:57;;;;;;;;;;;22.00;53.40;;;;;;1559825;74;636;-63
2023/04/19 03:54:59;;;;;;;;;;;22.00;53.50;;;;;;1562241;75;1117;-63
2023/04/19 03:57:01;;;;;;;;;;;22.00;53.40;;;;;;1562352;74;1620;-62
2023/04/19 03:59:03;;;;;;;;;;;22.00;53.40;;;;;;1556388;75;769;-61
2023/04/19 04:01:05;;;;;;;;;;;22.00;53.40;;;;;;1557360;74;1942;-63
2023/04/19 04:03:07;;;;;;;;;;;22.00;53.40;;;;;;1572314;74;730;-63
2023/04/19 04:05:09;;;;;;;;;;;22.00;53.40;;;;;;1561151;75;1137;-62
2023/04/19 04:07:11;;;;;;;;;;;22.00;53.40;;;;;;1567433;74;930;-66
2023/04/19 04:09:13;;;;;;;;;;;22.00;53.40;;;;;;1560423;75;782;-63
2023/04/19 04:11:15;;;;;;;;;;;22.00;53.60;;;;;;1566863;74;1543;-63
2023/04/19 04:13:17;;;;;;;;;;;22.00;53.50;;;;;;1569728;74;801;-63
2023/04/19 04:15:19;;;;;;;;;;;22.00;53.60;;;;;;1564116;74;1164;-63
2023/04/19 04:17:21;;;;;;;;;;;21.90;53.70;;;;;;1567641;74;745;-62
2023/04/19 04:19:23;;;;;;;;;;;21.90;54.00;;;;;;1549855;74;790;-64
2023/04/19 04:21:26;;;;;;;;;;;21.90;54.50;;;;;;1561007;75;2112;-62
2023/04/19 04:23:27;;;;;;;;;;;21.80;55.00;;;;;;1570222;74;803;-62
2023/04/19 04:25:31;;;;;;;;;;;21.70;55.20;;;;;;1564947;75;1572;-64
2023/04/19 04:27:33;;;;;;;;;;;21.70;55.80;;;;;;1551773;74;1420;-63
2023/04/19 04:29:36;;;;;;;;;;;21.60;55.30;;;;;;1571599;74;702;-64
2023/04/19 04:31:38;;;;;;;;;;;21.60;55.30;;;;;;1564449;74;1558;-64
2023/04/19 04:33:41;;;;;;;;;;;21.60;55.30;;;;;;1570202;74;737;-63
2023/04/19 04:35:42;;;;;;;;;;;21.60;55.30;;;;;;1564376;75;1102;-62
2023/04/19 04:37:45;;;;;;;;;;;21.70;55.60;;;;;;1559705;74;692;-62
2023/04/19 04:39:47;;;;;;;;;;;21.70;55.60;;;;;;1560480;74;1567;-63
2023/04/19 04:41:50;;;;;;;;;;;21.60;55.20;;;;;;1560730;75;1954;-64
2023/04/19 04:43:52;;;;;;;;;;;21.60;55.20;;;;;;1560556;75;835;-62
2023/04/19 04:45:56;;;;;;;;;;;21.60;55.00;;;;;;1561639;74;1152;-66
2023/04/19 04:47:58;;;;;;;;;;;21.70;55.20;;;;;;1559296;75;772;-64
2023/04/19 04:50:01;;;;;;;;;;;21.60;54.90;;;;;;1569534;74;792;-65
2023/04/19 04:52:03;;;;;;;;;;;21.60;54.80;;;;;;1559795;74;1542;-62
2023/04/19 04:54:05;;;;;;;;;;;21.50;54.80;;;;;;1567035;74;1146;-62
2023/04/19 04:56:07;;;;;;;;;;;21.60;54.80;;;;;;1564846;75;761;-63
2023/04/19 04:58:09;;;;;;;;;;;21.60;54.60;;;;;;1567216;74;681;-60
2023/04/19 05:00:12;;;;;;;;;;;21.60;54.60;;;;;;1573468;74;708;-61
2023/04/19 05:02:17;;;;;;;;;;;21.60;54.60;;;;;;1553980;75;1946;-60
2023/04/19 05:04:19;;;;;;;;;;;21.60;54.50;;;;;;1555068;74;1125;-61
2023/04/19 05:06:21;;;;;;;;;;;21.60;54.40;;;;;;1548758;74;1500;-62
2023/04/19 05:08:23;;;;;;;;;;;21.60;54.30;;;;;;1557699;75;775;-61
2023/04/19 05:10:25;;;;;;;;;;;21.70;54.30;;;;;;1567453;74;655;-61
2023/04/19 05:12:26;;;;;;;;;;;21.70;54.40;;;;;;1579945;74;751;-60
2023/04/19 05:14:28;;;;;;;;;;;21.70;54.30;;;;;;1546899;75;1202;-61
2023/04/19 05:16:30;;;;;;;;;;;21.80;54.20;;;;;;1560696;75;744;-62
2023/04/19 05:18:32;;;;;;;;;;;21.80;54.70;;;;;;1551786;75;745;-62
2023/04/19 05:20:34;;;;;;;;;;;21.80;54.70;;;;;;1534845;77;1561;-62
2023/04/19 05:22:36;;;;;;;;;;;21.80;55.00;;;;;;1529743;76;1925;-62
2023/04/19 05:24:38;;;;;;;;;;;21.80;54.90;;;;;;1509328;78;1157;-61
2023/04/19 05:26:40;;;;;;;;;;;21.90;54.80;;;;;;1526699;76;797;-60
2023/04/19 05:28:42;;;;;;;;;;;21.90;54.70;;;;;;1514680;77;771;-63
2023/04/19 05:30:44;;;;;;;;;;;21.90;54.70;;;;;;1523230;77;670;-62
2023/04/19 05:32:46;;;;;;;;;;;21.80;55.60;;;;;;1503829;77;756;-62
2023/04/19 05:34:48;;;;;;;;;;;21.80;55.90;;;;;;1494850;78;1613;-62
2023/04/19 05:36:50;;;;;;;;;;;21.60;56.00;;;;;;1519430;76;719;-62
2023/04/19 05:38:52;;;;;;;;;;;21.60;56.20;;;;;;1539052;76;727;-61
2023/04/19 05:40:54;;;;;;;;;;;21.50;56.40;;;;;;1533533;76;687;-61
2023/04/19 05:42:56;;;;;;;;;;;21.50;56.30;;;;;;1527910;76;1923;-60
2023/04/19 05:44:57;;;;;;;;;;;21.50;56.20;;;;;;1528191;76;1138;-61
2023/04/19 05:47:00;;;;;;;;;;;21.60;55.70;;;;;;1525393;76;691;-60
2023/04/19 05:49:02;;;;;;;;;;;21.60;55.50;;;;;;1516437;76;1559;-59
2023/04/19 05:51:04;;;;;;;;;;;21.50;55.60;;;;;;1529073;76;750;-59
2023/04/19 05:53:05;;;;;;;;;;;21.50;55.60;;;;;;1516293;77;673;-61
2023/04/19 05:55:07;;;;;;;;;;;21.50;55.70;;;;;;1514494;77;1153;-61
2023/04/19 05:57:09;;;;;;;;;;;21.50;55.70;;;;;;1513146;77;737;-61
2023/04/19 05:59:12;;;;;;;;;;;21.40;55.60;;;;;;1534483;76;772;-61
2023/04/19 06:01:15;;;;;;;;;;;21.50;55.80;;;;;;1511016;77;609;-61
2023/04/19 06:03:17;;;;;;;;;;;21.50;55.80;;;;;;1518159;76;1906;-59
2023/04/19 06:05:18;;;;;;;;;;;21.50;55.80;;;;;;1520583;76;1147;-60
2023/04/19 06:07:20;;;;;;;;;;;21.40;55.70;;;;;;1522270;77;770;-60
2023/04/19 06:09:22;;;;;;;;;;;21.40;55.70;;;;;;1514792;77;759;-61
2023/04/19 06:11:24;;;;;;;;;;;21.40;55.60;;;;;;1512125;77;793;-61
2023/04/19 06:13:26;;;;;;;;;;;21.40;55.50;;;;;;1512022;77;771;-60
2023/04/19 06:15:29;;;;;;;;;;;21.40;55.50;;;;;;1514596;77;1191;-60
2023/04/19 06:17:31;;;;;;;;;;;21.40;55.50;;;;;;1506752;77;1425;-59
2023/04/19 06:19:33;;;;;;;;;;;21.40;55.50;;;;;;1509316;77;705;-60
2023/04/19 06:21:35;;;;;;;;;;;21.50;55.50;;;;;;1508924;77;754;-61
2023/04/19 06:23:37;;;;;;;;;;;21.40;55.40;;;;;;1517540;77;1919;-61
2023/04/19 06:25:39;;;;;;;;;;;21.50;55.50;;;;;;1514825;77;1146;-61
2023/04/19 06:27:41;;;;;;;;;;;21.50;55.30;;;;;;1515244;77;755;-61
2023/04/19 06:29:43;;;;;;;;;;;21.50;55.20;;;;;;1510783;77;726;-60
2023/04/19 06:31:45;;;;;;;;;;;21.50;55.20;;;;;;1523604;77;1583;-59
2023/04/19 06:33:47;;;;;;;;;;;21.60;55.00;;;;;;1503437;77;733;-59
2023/04/19 06:35:49;;;;;;;;;;;21.60;55.00;;;;;;1523336;77;1082;-61
2023/04/19 06:37:51;;;;;;;;;;;21.60;54.80;;;;;;1507326;77;770;-61
2023/04/19 06:39:53;;;;;;;;;;;21.60;54.70;;;;;;1524181;77;647;-61
2023/04/19 06:41:55;;;;;;;;;;;21.50;54.70;;;;;;1519277;77;1945;-61
2023/04/19 06:43:57;;;;;;;;;;;21.60;54.70;;;;;;1517986;77;787;-61
2023/04/19 06:45:59;;;;;;;;;;;21.60;54.70;;;;;;1514154;77;1711;-60
2023/04/19 06:48:01;;;;;;;;;;;21.50;54.80;;;;;;1520821;77;765;-60
2023/04/19 06:50:03;;;;;;;;;;;21.50;54.80;;;;;;1512276;77;684;-61
2023/04/19 06:52:05;;;;;;;;;;;21.50;54.80;;;;;;1522132;77;793;-60
2023/04/19 06:54:07;;;;;;;;;;;21.50;54.90;;;;;;1501131;77;1167;-61
2023/04/19 06:56:09;;;;;;;;;;;21.40;54.80;;;;;;1514517;77;679;-61
2023/04/19 06:58:11;;;;;;;;;;;21.50;54.90;;;;;;1505405;77;690;-62
2023/04/19 07:00:13;;;;;;;;;;;21.40;54.70;;;;;;1514685;77;1325;-59
2023/04/19 07:02:15;;;;;;;;;;;21.40;54.70;;;;;;1520708;77;1909;-61
2023/04/19 07:04:17;;;;;;;;;;;21.50;54.70;;;;;;1511149;77;1131;-61
2023/04/19 07:06:19;;;;;;;;;;;21.40;54.70;;;;;;1513994;77;1484;-61
2023/04/19 07:08:22;;;;;;;;;;;21.50;54.70;;;;;;1500872;79;682;-61
2023/04/19 07:10:24;;;;;;;;;;;21.50;54.70;;;;;;1499605;77;738;-61
2023/04/19 07:12:26;;;;;;;;;;;21.50;54.50;;;;;;1508757;78;827;-61
2023/04/19 07:14:28;;;;;;;;;;;21.50;54.50;;;;;;1506392;78;1681;-61
2023/04/19 07:16:30;;;;;;;;;;;21.60;54.20;;;;;;1507501;78;852;-61
2023/04/19 07:18:32;;;;;;;;;;;21.70;54.00;;;;;;1508253;77;875;-60
2023/04/19 07:20:34;;;;;;;;;;;21.80;53.80;;;;;;1508688;79;732;-60
2023/04/19 07:22:36;;;;;;;;;;;21.80;53.60;;;;;;1508749;79;1951;-61
2023/04/19 07:24:40;;;;;;;;;;;21.80;53.50;;;;;;1507938;77;1171;-60
2023/04/19 07:26:41;;;;;;;;;;;21.80;53.40;;;;;;1507877;77;1670;-61
2023/04/19 07:28:43;;;;;;;;;;;21.80;53.20;;;;;;1507560;79;727;-60
2023/04/19 07:30:45;;;;;;;;;;;21.90;53.20;;;;;;1508566;77;731;-62
2023/04/19 07:32:47;;;;;;;;;;;21.90;53.10;;;;;;1506168;78;732;-60
2023/04/19 07:34:50;;;;;;;;;;;21.90;53.00;;;;;;1507734;77;1098;-60
2023/04/19 07:36:52;;;;;;;;;;;21.90;53.00;;;;;;1505723;77;736;-61
2023/04/19 07:38:54;;;;;;;;;;;22.00;52.90;;;;;;1508709;79;749;-59
2023/04/19 07:40:56;;;;;;;;;;;22.00;52.80;;;;;;1506478;77;1330;-61
2023/04/19 07:42:58;;;;;;;;;;;21.90;52.80;;;;;;1494513;78;1937;-61
2023/04/19 07:45:00;;;;;;;;;;;21.90;52.70;;;;;;1508473;78;1147;-60
2023/04/19 07:47:03;;;;;;;;;;;22.00;52.60;;;;;;1507631;78;776;-60
2023/04/19 07:49:05;;;;;;;;;;;21.90;52.70;;;;;;1505930;78;773;-61
2023/04/19 07:51:15;;;;;;;;;;;21.90;52.70;;;;;;1508925;79;709;-60
2023/04/19 07:53:17;;;;;;;;;;;21.90;52.70;;;;;;1509034;77;717;-61
2023/04/19 07:55:19;;;;;;;;;;;21.90;52.70;;;;;;1508039;79;1375;-59
2023/04/19 07:57:21;;;;;;;;;;;21.90;52.60;;;;;;1504632;78;818;-61
2023/04/19 07:59:23;;;;;;;;;;;21.90;52.60;;;;;;1505635;77;731;-61
2023/04/19 08:01:25;;;;;;;;;;;21.90;52.60;;;;;;1502182;77;735;-60
2023/04/19 08:03:27;;;;;;;;;;;21.90;52.50;;;;;;1504361;79;1926;-60
2023/04/19 08:05:29;;;;;;;;;;;21.90;52.50;;;;;;1508615;78;1183;-61
2023/04/19 08:07:30;;;;;;;;;;;21.90;52.40;;;;;;1501743;77;999;-61
2023/04/19 08:09:33;;;;;;;;;;;21.90;52.40;;;;;;1508242;77;1620;-61
2023/04/19 08:11:35;;;;;;;;;;;21.90;52.40;;;;;;1508487;77;783;-60
2023/04/19 08:13:37;;;;;;;;;;;21.90;52.30;;;;;;1514210;77;804;-60
2023/04/19 08:15:39;;;;;;;;;;;21.90;52.30;;;;;;1516160;77;1191;-60
2023/04/19 08:17:44;;;;;;;;;;;21.90;52.30;;;;;;1520105;77;758;-61
2023/04/19 08:19:45;;;;;;;;;;;22.00;52.30;;;;;;1511497;77;722;-61
2023/04/19 08:21:47;;;;;;;;;;;22.00;52.20;;;;;;1513641;77;763;-60
2023/04/19 08:23:49;;;;;;;;;;;21.90;52.20;;;;;;1520757;77;1939;-60
2023/04/19 08:25:51;;;;;;;;;;;21.90;52.10;;;;;;1517079;77;1112;-61
2023/04/19 08:27:53;;;;;;;;;;;21.90;52.10;;;;;;1513599;77;687;-60
2023/04/19 08:29:55;;;;;;;;;;;22.00;52.10;;;;;;1511683;77;764;-61
2023/04/19 08:31:57;;;;;;;;;;;22.00;52.10;;;;;;1510858;77;654;-60
2023/04/19 08:33:59;;;;;;;;;;;21.90;52.10;;;;;;1516258;77;1174;-59
2023/04/19 08:36:01;;;;;;;;;;;22.00;52.00;;;;;;1504891;77;802;-61
2023/04/19 08:38:03;;;;;;;;;;;21.90;52.00;;;;;;1519712;77;1544;-61
2023/04/19 08:40:06;;;;;;;;;;;21.90;52.00;;;;;;1527436;77;954;-61
2023/04/19 08:42:08;;;;;;;;;;;22.00;52.00;;;;;;1511809;77;734;-61
2023/04/19 08:44:11;;;;;;;;;;;21.90;52.10;;;;;;1509940;77;1939;-62
2023/04/19 08:46:13;;;;;;;;;;;21.90;52.00;;;;;;1514985;77;1197;-60
2023/04/19 08:48:15;;;;;;;;;;;22.00;51.90;;;;;;1512738;77;699;-60
2023/04/19 08:50:18;;;;;;;;;;;21.90;51.90;;;;;;1512868;77;723;-61
2023/04/19 08:52:20;;;;;;;;;;;21.90;51.90;;;;;;1491741;77;1518;-60
2023/04/19 08:54:21;;;;;;;;;;;22.00;51.90;;;;;;1507264;77;1213;-60
2023/04/19 08:56:23;;;;;;;;;;;21.90;51.90;;;;;;1506610;77;786;-61
2023/04/19 08:58:28;;;;;;;;;;;21.90;51.90;;;;;;1508034;77;672;-60
2023/04/19 09:00:29;;;;;;;;;;;22.00;51.80;;;;;;1526694;77;1662;-60
2023/04/19 09:02:32;;;;;;;;;;;21.90;51.90;;;;;;1520847;77;723;-61
2023/04/19 09:04:34;;;;;;;;;;;21.90;51.90;;;;;;1508324;77;2006;-60
2023/04/19 09:06:39;;;;;;;;;;;22.00;51.80;;;;;;1509312;77;1620;-61
2023/04/19 09:08:41;;;;;;;;;;;21.90;51.90;;;;;;1523682;77;1114;-60
2023/04/19 09:10:44;;;;;;;;;;;22.00;51.80;;;;;;1513335;77;768;-61
2023/04/19 09:13:00;;;;;;;;;;;21.90;51.90;;;;;;1512113;77;713;-59
2023/04/19 09:15:03;;;;;;;;;;;22.00;52.00;;;;;;1504640;77;1247;-60
2023/04/19 09:17:14;;;;;;;;;;;21.90;51.80;;;;;;1517387;77;701;-60
2023/04/19 09:19:16;;;;;;;;;;;22.00;51.80;;;;;;1520978;77;1566;-61
2023/04/19 09:21:22;;;;;;;;;;;21.90;51.80;;;;;;1521778;77;734;-60
2023/04/19 09:23:24;;;;;;;;;;;21.90;51.80;;;;;;1493579;77;1962;-61
2023/04/19 09:25:26;;;;;;;;;;;21.90;51.80;;;;;;1517768;77;1210;-61
2023/04/19 09:27:29;;;;;;;;;;;21.90;51.80;;;;;;1503245;77;691;-60
2023/04/19 09:29:31;;;;;;;;;;;21.90;51.80;;;;;;1509287;77;715;-60
2023/04/19 09:31:34;;;;;;;;;;;21.90;51.80;;;;;;1508440;77;712;-61
2023/04/19 09:33:38;;;;;;;;;;;21.90;51.80;;;;;;1516264;77;1592;-60
2023/04/19 09:35:43;;;;;;;;;;;21.90;51.80;;;;;;1507468;77;1348;-61
2023/04/19 09:37:47;;;;;;;;;;;21.90;51.80;;;;;;1512018;77;829;-61
2023/04/19 09:39:49;;;;;;;;;;;21.90;51.80;;;;;;1499900;77;977;-60
2023/04/19 09:41:52;;;;;;;;;;;21.90;51.80;;;;;;1517756;77;765;-59
2023/04/19 09:43:54;;;;;;;;;;;21.90;51.80;;;;;;1505951;77;1931;-60
2023/04/19 09:45:56;;;;;;;;;;;21.90;51.80;;;;;;1508209;77;1181;-61
2023/04/19 09:48:02;;;;;;;;;;;21.90;51.80;;;;;;1502533;77;1569;-60
2023/04/19 09:50:05;;;;;;;;;;;21.90;51.70;;;;;;1514701;77;770;-60
2023/04/19 09:52:07;;;;;;;;;;;21.90;51.70;;;;;;1495506;77;1812;-61
2023/04/19 09:54:11;;;;;;;;;;;21.90;51.70;;;;;;1516609;77;1134;-61
2023/04/19 09:56:12;;;;;;;;;;;21.90;51.70;;;;;;1522518;77;1891;-61
2023/04/19 09:58:15;;;;;;;;;;;21.80;51.60;;;;;;1514672;78;666;-60
2023/04/19 10:00:17;;;;;;;;;;;21.90;51.70;;;;;;1522206;77;768;-60
2023/04/19 10:02:18;;;;;;;;;;;21.90;51.70;;;;;;1517533;77;1563;-60
2023/04/19 10:04:23;;;;;;;;;;;21.90;51.70;;;;;;1509455;77;1942;-61
2023/04/19 10:06:25;;;;;;;;;;;21.80;51.50;;;;;;1509628;77;708;-61
2023/04/19 10:08:27;;;;;;;;;;;21.80;51.50;;;;;;1507066;77;1120;-61
2023/04/19 10:10:29;;;;;;;;;;;21.90;51.70;;;;;;1508574;77;699;-61
2023/04/19 10:12:31;;;;;;;;;;;21.90;51.70;;;;;;1508923;79;714;-62
2023/04/19 10:14:34;;;;;;;;;;;21.90;51.70;;;;;;1510132;78;1203;-61
2023/04/19 10:16:37;;;;;;;;;;;21.90;51.70;;;;;;1505583;77;1436;-61
2023/04/19 10:18:39;;;;;;;;;;;21.80;51.50;;;;;;1509058;77;880;-61
2023/04/19 10:20:42;;;;;;;;;;;21.90;51.70;;;;;;1507892;78;797;-61
2023/04/19 10:22:44;;;;;;;;;;;21.80;51.60;;;;;;1508747;79;699;-61
2023/04/19 10:25:04;;;;;;;;;;;21.80;51.60;;;;;;1508622;79;2130;-61
2023/04/19 10:27:12;;;;;;;;;;;21.80;51.70;;;;;;1499728;78;744;-60
2023/04/19 10:29:14;;;;;;;;;;;21.80;51.70;;;;;;1507505;77;652;-60
2023/04/19 10:31:20;;;;;;;;;;;21.80;51.70;;;;;;1503958;79;1655;-60
2023/04/19 10:33:26;;;;;;;;;;;21.90;51.80;;;;;;1504976;77;930;-60
2023/04/19 10:35:29;;;;;;;;;;;21.80;51.60;;;;;;1505723;78;1164;-61
2023/04/19 10:37:31;;;;;;;;;;;21.90;51.80;;;;;;1505735;79;1012;-62
2023/04/19 10:39:43;;;;;;;;;;;21.90;52.00;;;;;;1508544;78;718;-61
2023/04/19 10:41:52;;;;;;;;;;;21.80;52.50;;;;;;1508849;78;699;-62
2023/04/19 10:43:58;;;;;;;;;;;21.80;52.40;;;;;;1496184;78;1949;-59
2023/04/19 10:46:01;;;;;;;;;;;21.80;52.30;;;;;;1508342;77;719;-60
2023/04/19 10:48:03;;;;;;;;;;;21.90;52.30;;;;;;1499227;78;721;-61
2023/04/19 10:50:05;;;;;;;;;;;21.90;52.30;;;;;;1505338;79;789;-61
2023/04/19 10:52:07;;;;;;;;;;;21.90;52.40;;;;;;1508891;77;789;-61
2023/04/19 10:54:29;;;;;;;;;;;21.90;52.60;;;;;;1482399;79;1256;-61
2023/04/19 10:56:36;;;;;;;;;;;21.90;53.00;;;;;;1508118;77;1640;-63
2023/04/19 10:58:56;;;;;;;;;;;21.80;52.90;;;;;;1500705;77;1553;-62
2023/04/19 11:01:08;;;;;;;;;;;21.80;53.10;;;;;;1501803;77;713;-62
2023/04/19 11:03:29;;;;;;;;;;;21.80;53.10;;;;;;1474816;78;1668;-62
2023/04/19 11:05:32;;;;;;;;;;;21.80;53.20;;;;;;1506012;78;1146;-63
2023/04/19 11:07:38;;;;;;;;;;;21.80;53.10;;;;;;1508934;77;1714;-61
2023/04/19 11:09:41;;;;;;;;;;;21.80;53.30;;;;;;1526305;77;1117;-62
2023/04/19 11:11:43;;;;;;;;;;;21.80;53.30;;;;;;1533921;77;1517;-61
2023/04/19 11:13:46;;;;;;;;;;;21.70;53.30;;;;;;1520281;77;697;-61
2023/04/19 11:15:48;;;;;;;;;;;21.80;53.50;;;;;;1520116;77;1184;-63
2023/04/19 11:17:53;;;;;;;;;;;21.80;53.30;;;;;;1520815;77;781;-61
2023/04/19 11:19:56;;;;;;;;;;;21.80;53.20;;;;;;1534637;77;814;-61
2023/04/19 11:21:58;;;;;;;;;;;21.90;53.20;;;;;;1514591;77;706;-60
2023/04/19 11:24:07;;;;;;;;;;;21.90;53.10;;;;;;1521840;77;1920;-62
2023/04/19 11:26:12;;;;;;;;;;;21.90;53.10;;;;;;1529207;77;1540;-62
2023/04/19 11:28:16;;;;;;;;;;;21.90;53.10;;;;;;1524642;77;698;-59
2023/04/19 11:30:20;;;;;;;;;;;21.90;52.90;;;;;;1532949;77;677;-60
2023/04/19 11:32:22;;;;;;;;;;;22.00;52.90;;;;;;1528325;77;671;-60
2023/04/19 11:34:24;;;;;;;;;;;22.00;52.90;;;;;;1490128;78;1191;-62
2023/04/19 11:36:25;;;;;;;;;;;22.00;53.30;;;;;;1500435;78;789;-64
2023/04/19 11:38:28;;;;;;;;;;;22.00;53.10;;;;;;1499265;78;780;-62
2023/04/19 11:40:29;;;;;;;;;;;22.00;53.10;;;;;;1502652;78;1528;-63
2023/04/19 11:42:31;;;;;;;;;;;22.00;53.00;;;;;;1488432;78;779;-62
2023/04/19 11:44:33;;;;;;;;;;;22.00;52.90;;;;;;1487249;78;1958;-62
2023/04/19 11:46:35;;;;;;;;;;;22.00;52.80;;;;;;1487404;78;686;-62
2023/04/19 11:48:38;;;;;;;;;;;22.00;52.80;;;;;;1490628;78;708;-61
2023/04/19 11:50:40;;;;;;;;;;;22.00;52.80;;;;;;1487666;78;699;-63
2023/04/19 11:52:42;;;;;;;;;;;21.90;52.90;;;;;;1487544;78;733;-61
2023/04/19 11:54:45;;;;;;;;;;;22.00;53.10;;;;;;1482943;78;1601;-61
2023/04/19 11:56:58;;;;;;;;;;;21.90;53.00;;;;;;1491264;78;673;-59
2023/04/19 11:59:00;;;;;;;;;;;22.00;53.10;;;;;;1477110;78;1028;-64
2023/04/19 12:01:05;;;;;;;;;;;21.90;53.20;;;;;;1487045;78;766;-61
2023/04/19 12:03:06;;;;;;;;;;;21.90;53.20;;;;;;1486533;78;782;-61
2023/04/19 12:05:10;;;;;;;;;;;21.90;53.10;;;;;;1487763;78;1951;-61
2023/04/19 12:07:12;;;;;;;;;;;21.90;53.00;;;;;;1479586;78;1804;-61
2023/04/19 12:09:14;;;;;;;;;;;22.00;52.80;;;;;;1493749;78;1704;-61
2023/04/19 12:11:17;;;;;;;;;;;22.00;52.70;;;;;;1467470;78;1177;-62